sensor_id;sensor_type;location;lat;lon;timestamp;temperature;humidity
50067;DHT22;35952;52.524;13.340;2022-11-20T00:00:00;1.30;99.90
50067;DHT22;35952;52.524;13.340;2022-11-20T00:02:26;1.40;99.90
50067;DHT22;35952;52.524;13.340;2022-11-20T00:04:52;1.40;99.90
50067;DHT22;35952;52.524;13.340;2022-11-20T00:07:17;1.40;99.90
50067;DHT22;35952;52.524;13.340;2022-11-20T00:09:43;1.40;99.90
50067;DHT22;35952;52.524;13.340;2022-11-20T00:12:08;1.40;99.90
50067;DHT22;35952;52.524;13.340;2022-11-20T00:14:34;1.40;99.90
50067;DHT22;35952;52.524;13.340;2022-11-20T00:16:59;1.30;99.90
50067;DHT22;35952;52.524;13.340;2022-11-20T00:19:25;1.30;99.90
50067;DHT22;35952;52.524;13.340;2022-11-20T00:21:51;1.30;99.90
50067;DHT22;35952;52.524;13.340;2022-11-20T00:24:19;1.30;99.90
50067;DHT22;35952;52.524;13.340;2022-11-20T00:26:44;1.40;99.90
50067;DHT22;35952;52.524;13.340;2022-11-20T00:29:10;1.50;99.90
50067;DHT22;35952;52.524;13.340;2022-11-20T00:31:36;1.50;99.90
50067;DHT22;35952;52.524;13.340;2022-11-20T00:34:01;1.40;99.90
50067;DHT22;35952;52.524;13.340;2022-11-20T00:36:28;1.40;99.90
50067;DHT22;35952;52.524;13.340;2022-11-20T00:38:56;1.30;99.90
50067;DHT22;35952;52.524;13.340;2022-11-20T00:41:22;1.40;99.90
50067;DHT22;35952;52.524;13.340;2022-11-20T00:43:48;1.40;99.90
50067;DHT22;35952;52.524;13.340;2022-11-20T00:46:17;1.40;99.90
50067;DHT22;35952;52.524;13.340;2022-11-20T00:48:43;1.40;99.90
50067;DHT22;35952;52.524;13.340;2022-11-20T00:51:11;1.30;99.90
50067;DHT22;35952;52.524;13.340;2022-11-20T00:53:38;1.30;99.90
50067;DHT22;35952;52.524;13.340;2022-11-20T00:56:12;1.40;99.90
50067;DHT22;35952;52.524;13.340;2022-11-20T00:58:39;1.40;99.90
50067;DHT22;35952;52.524;13.340;2022-11-20T01:01:16;1.40;99.90
50067;DHT22;35952;52.524;13.340;2022-11-20T01:03:44;1.30;99.90
50067;DHT22;35952;52.524;13.340;2022-11-20T01:06:16;1.20;99.90
50067;DHT22;35952;52.524;13.340;2022-11-20T01:08:43;1.30;99.90
50067;DHT22;35952;52.524;13.340;2022-11-20T01:11:11;1.30;99.90
50067;DHT22;35952;52.524;13.340;2022-11-20T01:13:38;1.30;99.90
50067;DHT22;35952;52.524;13.340;2022-11-20T01:16:13;1.40;99.90
50067;DHT22;35952;52.524;13.340;2022-11-20T01:18:44;1.40;99.90
50067;DHT22;35952;52.524;13.340;2022-11-20T01:21:13;1.40;99.90
50067;DHT22;35952;52.524;13.340;2022-11-20T01:23:40;1.40;99.90
50067;DHT22;35952;52.524;13.340;2022-11-20T01:26:09;1.40;99.90
50067;DHT22;35952;52.524;13.340;2022-11-20T01:28:35;1.50;99.90
50067;DHT22;35952;52.524;13.340;2022-11-20T01:31:01;1.40;99.90
50067;DHT22;35952;52.524;13.340;2022-11-20T01:33:27;1.40;99.90
50067;DHT22;35952;52.524;13.340;2022-11-20T01:35:53;1.40;99.90
50067;DHT22;35952;52.524;13.340;2022-11-20T01:38:19;1.40;99.90
50067;DHT22;35952;52.524;13.340;2022-11-20T01:40:55;1.40;99.90
50067;DHT22;35952;52.524;13.340;2022-11-20T01:43:21;1.40;99.90
50067;DHT22;35952;52.524;13.340;2022-11-20T01:48:38;1.30;99.90
50067;DHT22;35952;52.524;13.340;2022-11-20T01:51:10;1.40;99.90
50067;DHT22;35952;52.524;13.340;2022-11-20T01:53:37;1.40;99.90
50067;DHT22;35952;52.524;13.340;2022-11-20T01:56:05;1.40;99.90
50067;DHT22;35952;52.524;13.340;2022-11-20T01:58:35;1.30;99.90
50067;DHT22;35952;52.524;13.340;2022-11-20T02:01:04;1.30;99.90
50067;DHT22;35952;52.524;13.340;2022-11-20T02:03:29;1.30;99.90
50067;DHT22;35952;52.524;13.340;2022-11-20T02:06:11;1.20;99.90
50067;DHT22;35952;52.524;13.340;2022-11-20T02:08:38;1.20;99.90
50067;DHT22;35952;52.524;13.340;2022-11-20T02:11:04;1.20;99.90
50067;DHT22;35952;52.524;13.340;2022-11-20T02:13:29;1.30;99.90
50067;DHT22;35952;52.524;13.340;2022-11-20T02:16:23;1.20;99.90
50067;DHT22;35952;52.524;13.340;2022-11-20T02:18:50;1.20;99.90
50067;DHT22;35952;52.524;13.340;2022-11-20T02:21:35;1.20;99.90
50067;DHT22;35952;52.524;13.340;2022-11-20T02:24:12;1.30;99.90
50067;DHT22;35952;52.524;13.340;2022-11-20T02:26:56;1.30;99.90
50067;DHT22;35952;52.524;13.340;2022-11-20T02:29:32;1.20;99.90
50067;DHT22;35952;52.524;13.340;2022-11-20T02:32:00;1.30;99.90
50067;DHT22;35952;52.524;13.340;2022-11-20T02:34:27;1.30;99.90
50067;DHT22;35952;52.524;13.340;2022-11-20T02:36:54;1.20;99.90
50067;DHT22;35952;52.524;13.340;2022-11-20T02:39:20;1.20;99.90
50067;DHT22;35952;52.524;13.340;2022-11-20T02:41:47;1.20;99.90
50067;DHT22;35952;52.524;13.340;2022-11-20T02:44:13;1.20;99.90
50067;DHT22;35952;52.524;13.340;2022-11-20T02:46:38;1.30;99.90
50067;DHT22;35952;52.524;13.340;2022-11-20T02:49:04;1.30;99.90
50067;DHT22;35952;52.524;13.340;2022-11-20T02:51:30;1.30;99.90
50067;DHT22;35952;52.524;13.340;2022-11-20T02:53:56;1.20;99.90
50067;DHT22;35952;52.524;13.340;2022-11-20T02:56:21;1.20;99.90
50067;DHT22;35952;52.524;13.340;2022-11-20T02:58:47;1.20;99.90
50067;DHT22;35952;52.524;13.340;2022-11-20T03:01:13;1.20;99.90
50067;DHT22;35952;52.524;13.340;2022-11-20T03:03:38;1.20;99.90
50067;DHT22;35952;52.524;13.340;2022-11-20T03:06:04;1.30;99.90
50067;DHT22;35952;52.524;13.340;2022-11-20T03:08:30;1.30;99.90
50067;DHT22;35952;52.524;13.340;2022-11-20T03:10:55;1.30;99.90
50067;DHT22;35952;52.524;13.340;2022-11-20T03:13:21;1.30;99.90
50067;DHT22;35952;52.524;13.340;2022-11-20T03:15:46;1.30;99.90
50067;DHT22;35952;52.524;13.340;2022-11-20T03:18:12;1.20;99.90
50067;DHT22;35952;52.524;13.340;2022-11-20T03:20:39;1.20;99.90
50067;DHT22;35952;52.524;13.340;2022-11-20T03:23:05;1.30;99.90
50067;DHT22;35952;52.524;13.340;2022-11-20T03:25:30;1.20;99.90
50067;DHT22;35952;52.524;13.340;2022-11-20T03:27:56;1.30;99.90
50067;DHT22;35952;52.524;13.340;2022-11-20T03:30:21;1.30;99.90
50067;DHT22;35952;52.524;13.340;2022-11-20T03:32:47;1.20;99.90
50067;DHT22;35952;52.524;13.340;2022-11-20T03:35:12;1.30;99.90
50067;DHT22;35952;52.524;13.340;2022-11-20T03:37:38;1.30;99.90
50067;DHT22;35952;52.524;13.340;2022-11-20T03:40:04;1.30;99.90
50067;DHT22;35952;52.524;13.340;2022-11-20T03:42:30;1.40;99.90
50067;DHT22;35952;52.524;13.340;2022-11-20T03:48:35;1.30;99.90
50067;DHT22;35952;52.524;13.340;2022-11-20T03:51:14;1.30;99.90
50067;DHT22;35952;52.524;13.340;2022-11-20T03:53:41;1.30;99.90
50067;DHT22;35952;52.524;13.340;2022-11-20T03:56:08;1.30;99.90
50067;DHT22;35952;52.524;13.340;2022-11-20T03:58:35;1.20;99.90
50067;DHT22;35952;52.524;13.340;2022-11-20T04:01:21;1.20;99.90
50067;DHT22;35952;52.524;13.340;2022-11-20T04:03:48;1.20;99.90
50067;DHT22;35952;52.524;13.340;2022-11-20T04:06:16;1.10;99.90
50067;DHT22;35952;52.524;13.340;2022-11-20T04:08:42;1.00;99.90
50067;DHT22;35952;52.524;13.340;2022-11-20T04:11:29;1.00;99.90
50067;DHT22;35952;52.524;13.340;2022-11-20T04:13:58;1.00;99.90
50067;DHT22;35952;52.524;13.340;2022-11-20T04:16:25;1.00;99.90
50067;DHT22;35952;52.524;13.340;2022-11-20T04:18:52;1.00;99.90
50067;DHT22;35952;52.524;13.340;2022-11-20T04:21:20;0.90;99.90
50067;DHT22;35952;52.524;13.340;2022-11-20T04:23:46;1.00;99.90
50067;DHT22;35952;52.524;13.340;2022-11-20T04:26:12;1.00;99.90
50067;DHT22;35952;52.524;13.340;2022-11-20T04:28:39;0.90;99.90
50067;DHT22;35952;52.524;13.340;2022-11-20T04:31:09;1.00;99.90
50067;DHT22;35952;52.524;13.340;2022-11-20T04:33:35;0.70;99.90
50067;DHT22;35952;52.524;13.340;2022-11-20T04:36:10;0.60;99.90
50067;DHT22;35952;52.524;13.340;2022-11-20T04:38:36;0.80;99.90
50067;DHT22;35952;52.524;13.340;2022-11-20T04:41:04;0.90;99.90
50067;DHT22;35952;52.524;13.340;2022-11-20T04:43:30;0.70;99.90
50067;DHT22;35952;52.524;13.340;2022-11-20T04:45:57;0.90;99.90
50067;DHT22;35952;52.524;13.340;2022-11-20T04:48:23;0.90;99.90
50067;DHT22;35952;52.524;13.340;2022-11-20T04:50:49;1.00;99.90
50067;DHT22;35952;52.524;13.340;2022-11-20T04:53:17;1.10;99.90
50067;DHT22;35952;52.524;13.340;2022-11-20T04:55:43;1.10;99.90
50067;DHT22;35952;52.524;13.340;2022-11-20T04:58:08;1.10;99.90
50067;DHT22;35952;52.524;13.340;2022-11-20T05:00:34;1.00;99.90
50067;DHT22;35952;52.524;13.340;2022-11-20T05:03:00;0.90;99.90
50067;DHT22;35952;52.524;13.340;2022-11-20T05:05:25;1.00;99.90
50067;DHT22;35952;52.524;13.340;2022-11-20T05:07:51;1.00;99.90
50067;DHT22;35952;52.524;13.340;2022-11-20T05:10:17;0.80;99.90
50067;DHT22;35952;52.524;13.340;2022-11-20T05:12:42;0.90;99.90
50067;DHT22;35952;52.524;13.340;2022-11-20T05:15:08;1.00;99.90
50067;DHT22;35952;52.524;13.340;2022-11-20T05:17:33;0.90;99.90
50067;DHT22;35952;52.524;13.340;2022-11-20T05:19:59;1.00;99.90
50067;DHT22;35952;52.524;13.340;2022-11-20T05:22:24;1.00;99.90
50067;DHT22;35952;52.524;13.340;2022-11-20T05:24:50;1.20;99.90
50067;DHT22;35952;52.524;13.340;2022-11-20T05:27:15;1.00;99.90
50067;DHT22;35952;52.524;13.340;2022-11-20T05:29:41;1.00;99.90
50067;DHT22;35952;52.524;13.340;2022-11-20T05:32:06;1.00;99.90
50067;DHT22;35952;52.524;13.340;2022-11-20T05:34:35;1.10;99.90
50067;DHT22;35952;52.524;13.340;2022-11-20T05:37:00;1.20;99.90
50067;DHT22;35952;52.524;13.340;2022-11-20T05:39:26;1.10;99.90
50067;DHT22;35952;52.524;13.340;2022-11-20T05:41:51;1.20;99.90
50067;DHT22;35952;52.524;13.340;2022-11-20T05:44:37;1.20;99.90
50067;DHT22;35952;52.524;13.340;2022-11-20T05:47:02;1.20;99.90
50067;DHT22;35952;52.524;13.340;2022-11-20T05:49:28;1.30;99.90
50067;DHT22;35952;52.524;13.340;2022-11-20T05:51:53;1.20;99.90
50067;DHT22;35952;52.524;13.340;2022-11-20T05:54:19;1.20;99.90
50067;DHT22;35952;52.524;13.340;2022-11-20T05:56:44;1.30;99.90
50067;DHT22;35952;52.524;13.340;2022-11-20T05:59:10;1.20;99.90
50067;DHT22;35952;52.524;13.340;2022-11-20T06:01:35;1.20;99.90
50067;DHT22;35952;52.524;13.340;2022-11-20T06:04:01;1.20;99.90
50067;DHT22;35952;52.524;13.340;2022-11-20T06:06:26;1.20;99.90
50067;DHT22;35952;52.524;13.340;2022-11-20T06:08:52;1.30;99.90
50067;DHT22;35952;52.524;13.340;2022-11-20T06:11:18;1.20;99.90
50067;DHT22;35952;52.524;13.340;2022-11-20T06:13:44;1.30;99.90
50067;DHT22;35952;52.524;13.340;2022-11-20T06:16:11;1.30;99.90
50067;DHT22;35952;52.524;13.340;2022-11-20T06:18:38;1.30;99.90
50067;DHT22;35952;52.524;13.340;2022-11-20T06:21:09;1.40;99.90
50067;DHT22;35952;52.524;13.340;2022-11-20T06:23:35;1.10;99.90
50067;DHT22;35952;52.524;13.340;2022-11-20T06:26:12;1.10;99.90
50067;DHT22;35952;52.524;13.340;2022-11-20T06:28:38;1.00;99.90
50067;DHT22;35952;52.524;13.340;2022-11-20T06:31:05;1.00;99.90
50067;DHT22;35952;52.524;13.340;2022-11-20T06:33:30;1.00;99.90
50067;DHT22;35952;52.524;13.340;2022-11-20T06:35:57;1.00;99.90
50067;DHT22;35952;52.524;13.340;2022-11-20T06:38:24;1.20;99.90
50067;DHT22;35952;52.524;13.340;2022-11-20T06:40:50;1.30;99.90
50067;DHT22;35952;52.524;13.340;2022-11-20T06:43:15;1.40;99.90
50067;DHT22;35952;52.524;13.340;2022-11-20T06:45:40;1.40;99.90
50067;DHT22;35952;52.524;13.340;2022-11-20T06:48:06;1.00;99.90
50067;DHT22;35952;52.524;13.340;2022-11-20T06:50:31;1.10;99.90
50067;DHT22;35952;52.524;13.340;2022-11-20T06:53:01;1.20;99.90
50067;DHT22;35952;52.524;13.340;2022-11-20T06:55:27;1.20;99.90
50067;DHT22;35952;52.524;13.340;2022-11-20T06:57:53;1.10;99.90
50067;DHT22;35952;52.524;13.340;2022-11-20T07:00:18;1.10;99.90
50067;DHT22;35952;52.524;13.340;2022-11-20T07:02:44;1.20;99.90
50067;DHT22;35952;52.524;13.340;2022-11-20T07:05:09;1.00;99.90
50067;DHT22;35952;52.524;13.340;2022-11-20T07:07:35;0.80;99.90
50067;DHT22;35952;52.524;13.340;2022-11-20T07:10:01;0.90;99.90
50067;DHT22;35952;52.524;13.340;2022-11-20T07:12:26;0.90;99.90
50067;DHT22;35952;52.524;13.340;2022-11-20T07:14:52;1.10;99.90
50067;DHT22;35952;52.524;13.340;2022-11-20T07:17:17;1.00;99.90
50067;DHT22;35952;52.524;13.340;2022-11-20T07:19:43;0.80;99.90
50067;DHT22;35952;52.524;13.340;2022-11-20T07:22:08;1.20;99.90
50067;DHT22;35952;52.524;13.340;2022-11-20T07:24:34;1.20;99.90
50067;DHT22;35952;52.524;13.340;2022-11-20T07:27:00;1.10;99.90
50067;DHT22;35952;52.524;13.340;2022-11-20T07:29:26;1.10;99.90
50067;DHT22;35952;52.524;13.340;2022-11-20T07:31:51;1.20;99.90
50067;DHT22;35952;52.524;13.340;2022-11-20T07:34:17;1.20;99.90
50067;DHT22;35952;52.524;13.340;2022-11-20T07:36:42;1.30;99.90
50067;DHT22;35952;52.524;13.340;2022-11-20T07:39:08;1.30;99.90
50067;DHT22;35952;52.524;13.340;2022-11-20T07:41:33;1.20;99.90
50067;DHT22;35952;52.524;13.340;2022-11-20T07:43:59;0.80;99.90
50067;DHT22;35952;52.524;13.340;2022-11-20T07:46:24;0.70;99.90
50067;DHT22;35952;52.524;13.340;2022-11-20T07:48:50;0.80;99.90
50067;DHT22;35952;52.524;13.340;2022-11-20T07:51:15;0.90;99.90
50067;DHT22;35952;52.524;13.340;2022-11-20T07:53:41;1.10;99.90
50067;DHT22;35952;52.524;13.340;2022-11-20T07:56:06;1.20;99.90
50067;DHT22;35952;52.524;13.340;2022-11-20T07:58:32;1.30;99.90
50067;DHT22;35952;52.524;13.340;2022-11-20T08:01:06;1.00;99.90
50067;DHT22;35952;52.524;13.340;2022-11-20T08:03:32;1.00;99.90
50067;DHT22;35952;52.524;13.340;2022-11-20T08:05:59;1.10;99.90
50067;DHT22;35952;52.524;13.340;2022-11-20T08:08:26;1.10;99.90
50067;DHT22;35952;52.524;13.340;2022-11-20T08:10:52;1.20;99.90
50067;DHT22;35952;52.524;13.340;2022-11-20T08:13:17;1.10;99.90
50067;DHT22;35952;52.524;13.340;2022-11-20T08:16:01;1.10;99.90
50067;DHT22;35952;52.524;13.340;2022-11-20T08:18:27;1.10;99.90
50067;DHT22;35952;52.524;13.340;2022-11-20T08:20:52;1.10;99.90
50067;DHT22;35952;52.524;13.340;2022-11-20T08:23:18;1.20;99.90
50067;DHT22;35952;52.524;13.340;2022-11-20T08:25:43;1.10;99.90
50067;DHT22;35952;52.524;13.340;2022-11-20T08:28:13;1.10;99.90
50067;DHT22;35952;52.524;13.340;2022-11-20T08:30:39;1.10;99.90
50067;DHT22;35952;52.524;13.340;2022-11-20T08:33:09;1.30;99.90
50067;DHT22;35952;52.524;13.340;2022-11-20T08:35:35;1.40;99.90
50067;DHT22;35952;52.524;13.340;2022-11-20T08:38:02;1.30;99.90
50067;DHT22;35952;52.524;13.340;2022-11-20T08:40:28;1.10;99.90
50067;DHT22;35952;52.524;13.340;2022-11-20T08:42:54;1.30;99.90
50067;DHT22;35952;52.524;13.340;2022-11-20T08:45:19;1.10;99.90
50067;DHT22;35952;52.524;13.340;2022-11-20T08:47:45;1.10;99.90
50067;DHT22;35952;52.524;13.340;2022-11-20T08:50:13;1.10;99.90
50067;DHT22;35952;52.524;13.340;2022-11-20T08:52:38;1.20;99.90
50067;DHT22;35952;52.524;13.340;2022-11-20T08:55:05;1.20;99.90
50067;DHT22;35952;52.524;13.340;2022-11-20T08:57:32;1.40;99.90
50067;DHT22;35952;52.524;13.340;2022-11-20T08:59:58;1.50;99.90
50067;DHT22;35952;52.524;13.340;2022-11-20T09:02:24;1.40;99.90
50067;DHT22;35952;52.524;13.340;2022-11-20T09:04:49;1.50;99.90
50067;DHT22;35952;52.524;13.340;2022-11-20T09:07:15;1.50;99.90
50067;DHT22;35952;52.524;13.340;2022-11-20T09:09:40;1.40;99.90
50067;DHT22;35952;52.524;13.340;2022-11-20T09:12:06;1.40;99.90
50067;DHT22;35952;52.524;13.340;2022-11-20T09:14:32;1.40;99.90
50067;DHT22;35952;52.524;13.340;2022-11-20T09:16:58;1.40;99.90
50067;DHT22;35952;52.524;13.340;2022-11-20T09:19:24;1.40;99.90
50067;DHT22;35952;52.524;13.340;2022-11-20T09:21:50;1.40;99.90
50067;DHT22;35952;52.524;13.340;2022-11-20T09:24:16;1.20;99.90
50067;DHT22;35952;52.524;13.340;2022-11-20T09:26:41;1.20;99.90
50067;DHT22;35952;52.524;13.340;2022-11-20T09:29:07;1.40;99.90
50067;DHT22;35952;52.524;13.340;2022-11-20T09:31:32;1.40;99.90
50067;DHT22;35952;52.524;13.340;2022-11-20T09:33:58;1.50;99.90
50067;DHT22;35952;52.524;13.340;2022-11-20T09:36:23;1.30;99.90
50067;DHT22;35952;52.524;13.340;2022-11-20T09:38:49;1.30;99.90
50067;DHT22;35952;52.524;13.340;2022-11-20T09:41:36;1.20;99.90
50067;DHT22;35952;52.524;13.340;2022-11-20T09:47:20;1.60;99.90
50067;DHT22;35952;52.524;13.340;2022-11-20T09:49:58;1.50;99.90
50067;DHT22;35952;52.524;13.340;2022-11-20T09:52:39;1.60;99.90
50067;DHT22;35952;52.524;13.340;2022-11-20T09:55:12;1.80;99.90
50067;DHT22;35952;52.524;13.340;2022-11-20T09:57:45;1.90;99.90
50067;DHT22;35952;52.524;13.340;2022-11-20T10:00:13;1.80;99.90
50067;DHT22;35952;52.524;13.340;2022-11-20T10:03:05;2.00;99.90
50067;DHT22;35952;52.524;13.340;2022-11-20T10:05:47;2.20;99.90
50067;DHT22;35952;52.524;13.340;2022-11-20T10:08:28;2.00;99.90
50067;DHT22;35952;52.524;13.340;2022-11-20T10:22:25;2.10;99.90
50067;DHT22;35952;52.524;13.340;2022-11-20T10:25:20;2.10;99.90
50067;DHT22;35952;52.524;13.340;2022-11-20T10:28:12;1.90;99.90
50067;DHT22;35952;52.524;13.340;2022-11-20T10:30:43;1.90;99.90
50067;DHT22;35952;52.524;13.340;2022-11-20T10:33:19;2.20;99.90
50067;DHT22;35952;52.524;13.340;2022-11-20T10:35:52;2.30;99.90
50067;DHT22;35952;52.524;13.340;2022-11-20T10:38:31;2.50;99.90
50067;DHT22;35952;52.524;13.340;2022-11-20T10:41:01;2.50;99.90
50067;DHT22;35952;52.524;13.340;2022-11-20T10:43:47;2.60;99.90
50067;DHT22;35952;52.524;13.340;2022-11-20T10:46:20;2.50;99.90
50067;DHT22;35952;52.524;13.340;2022-11-20T10:48:50;2.50;99.90
50067;DHT22;35952;52.524;13.340;2022-11-20T10:56:46;2.30;99.90
50067;DHT22;35952;52.524;13.340;2022-11-20T10:59:35;2.50;99.90
50067;DHT22;35952;52.524;13.340;2022-11-20T11:02:24;2.60;99.90
50067;DHT22;35952;52.524;13.340;2022-11-20T11:04:57;2.90;99.90
50067;DHT22;35952;52.524;13.340;2022-11-20T11:07:27;2.70;99.90
50067;DHT22;35952;52.524;13.340;2022-11-20T11:09:55;3.00;99.90
50067;DHT22;35952;52.524;13.340;2022-11-20T11:12:26;3.10;99.90
50067;DHT22;35952;52.524;13.340;2022-11-20T11:14:54;3.30;99.90
50067;DHT22;35952;52.524;13.340;2022-11-20T11:17:31;3.50;99.90
50067;DHT22;35952;52.524;13.340;2022-11-20T11:22:31;3.50;99.90
50067;DHT22;35952;52.524;13.340;2022-11-20T11:24:57;3.50;99.90
50067;DHT22;35952;52.524;13.340;2022-11-20T11:27:24;3.50;99.90
50067;DHT22;35952;52.524;13.340;2022-11-20T11:29:49;3.40;99.90
50067;DHT22;35952;52.524;13.340;2022-11-20T11:32:18;3.30;99.90
50067;DHT22;35952;52.524;13.340;2022-11-20T11:34:44;3.30;99.90
50067;DHT22;35952;52.524;13.340;2022-11-20T11:37:17;3.20;99.90
50067;DHT22;35952;52.524;13.340;2022-11-20T11:39:44;3.00;99.90
50067;DHT22;35952;52.524;13.340;2022-11-20T11:42:17;3.00;99.90
50067;DHT22;35952;52.524;13.340;2022-11-20T11:44:47;3.00;99.90
50067;DHT22;35952;52.524;13.340;2022-11-20T11:48:04;2.90;99.90
50067;DHT22;35952;52.524;13.340;2022-11-20T11:50:25;2.80;99.90
50067;DHT22;35952;52.524;13.340;2022-11-20T11:53:02;2.70;99.90
50067;DHT22;35952;52.524;13.340;2022-11-20T11:55:42;2.60;99.90
50067;DHT22;35952;52.524;13.340;2022-11-20T12:00:58;2.40;99.90
50067;DHT22;35952;52.524;13.340;2022-11-20T12:03:40;2.30;99.90
50067;DHT22;35952;52.524;13.340;2022-11-20T12:06:12;2.20;99.90
50067;DHT22;35952;52.524;13.340;2022-11-20T12:08:51;2.30;99.90
50067;DHT22;35952;52.524;13.340;2022-11-20T12:12:04;2.30;99.90
50067;DHT22;35952;52.524;13.340;2022-11-20T12:14:37;2.20;99.90
50067;DHT22;35952;52.524;13.340;2022-11-20T12:17:04;2.40;99.90
50067;DHT22;35952;52.524;13.340;2022-11-20T12:19:31;2.30;99.90
50067;DHT22;35952;52.524;13.340;2022-11-20T12:25:14;2.30;99.90
50067;DHT22;35952;52.524;13.340;2022-11-20T12:30:25;2.60;99.90
50067;DHT22;35952;52.524;13.340;2022-11-20T12:33:17;2.70;99.90
50067;DHT22;35952;52.524;13.340;2022-11-20T12:36:19;2.80;99.90
50067;DHT22;35952;52.524;13.340;2022-11-20T12:39:07;2.90;99.90
50067;DHT22;35952;52.524;13.340;2022-11-20T12:42:05;3.00;99.90
50067;DHT22;35952;52.524;13.340;2022-11-20T12:45:14;3.10;99.90
50067;DHT22;35952;52.524;13.340;2022-11-20T12:55:47;2.70;99.90
50067;DHT22;35952;52.524;13.340;2022-11-20T12:58:27;2.70;99.90
50067;DHT22;35952;52.524;13.340;2022-11-20T13:07:04;2.60;99.90
50067;DHT22;35952;52.524;13.340;2022-11-20T13:09:31;2.70;99.90
50067;DHT22;35952;52.524;13.340;2022-11-20T13:12:06;2.50;99.90
50067;DHT22;35952;52.524;13.340;2022-11-20T13:17:35;2.60;99.90
50067;DHT22;35952;52.524;13.340;2022-11-20T13:20:03;2.60;99.90
50067;DHT22;35952;52.524;13.340;2022-11-20T13:22:46;2.60;99.90
50067;DHT22;35952;52.524;13.340;2022-11-20T13:25:35;2.70;99.90
50067;DHT22;35952;52.524;13.340;2022-11-20T13:30:36;2.80;99.90
50067;DHT22;35952;52.524;13.340;2022-11-20T13:33:32;2.80;99.90
50067;DHT22;35952;52.524;13.340;2022-11-20T13:36:06;2.90;99.90
50067;DHT22;35952;52.524;13.340;2022-11-20T13:38:44;2.90;99.90
50067;DHT22;35952;52.524;13.340;2022-11-20T13:41:11;2.70;99.90
50067;DHT22;35952;52.524;13.340;2022-11-20T13:46:42;2.60;99.90
50067;DHT22;35952;52.524;13.340;2022-11-20T13:49:14;2.50;99.90
50067;DHT22;35952;52.524;13.340;2022-11-20T13:51:46;2.40;99.90
50067;DHT22;35952;52.524;13.340;2022-11-20T14:00:19;2.50;99.90
50067;DHT22;35952;52.524;13.340;2022-11-20T14:03:22;2.50;99.90
50067;DHT22;35952;52.524;13.340;2022-11-20T14:06:10;2.50;99.90
50067;DHT22;35952;52.524;13.340;2022-11-20T14:08:42;2.40;99.90
50067;DHT22;35952;52.524;13.340;2022-11-20T14:11:18;2.40;99.90
50067;DHT22;35952;52.524;13.340;2022-11-20T14:13:59;2.40;99.90
50067;DHT22;35952;52.524;13.340;2022-11-20T14:16:27;2.40;99.90
50067;DHT22;35952;52.524;13.340;2022-11-20T14:18:53;2.40;99.90
50067;DHT22;35952;52.524;13.340;2022-11-20T14:21:23;2.40;99.90
50067;DHT22;35952;52.524;13.340;2022-11-20T14:23:52;2.40;99.90
50067;DHT22;35952;52.524;13.340;2022-11-20T14:26:18;2.40;99.90
50067;DHT22;35952;52.524;13.340;2022-11-20T14:28:48;2.30;99.90
50067;DHT22;35952;52.524;13.340;2022-11-20T14:31:22;2.30;99.90
50067;DHT22;35952;52.524;13.340;2022-11-20T14:33:48;2.40;99.90
50067;DHT22;35952;52.524;13.340;2022-11-20T14:36:19;2.30;99.90
50067;DHT22;35952;52.524;13.340;2022-11-20T14:38:45;2.20;99.90
50067;DHT22;35952;52.524;13.340;2022-11-20T14:41:22;2.20;99.90
50067;DHT22;35952;52.524;13.340;2022-11-20T14:43:57;2.20;99.90
50067;DHT22;35952;52.524;13.340;2022-11-20T14:46:23;2.10;99.90
50067;DHT22;35952;52.524;13.340;2022-11-20T14:48:51;2.10;99.90
50067;DHT22;35952;52.524;13.340;2022-11-20T14:51:35;2.10;99.90
50067;DHT22;35952;52.524;13.340;2022-11-20T14:54:19;2.00;99.90
50067;DHT22;35952;52.524;13.340;2022-11-20T14:56:54;2.10;99.90
50067;DHT22;35952;52.524;13.340;2022-11-20T14:59:25;2.10;99.90
50067;DHT22;35952;52.524;13.340;2022-11-20T15:01:59;2.10;99.90
50067;DHT22;35952;52.524;13.340;2022-11-20T15:04:26;2.10;99.90
50067;DHT22;35952;52.524;13.340;2022-11-20T15:06:54;2.00;99.90
50067;DHT22;35952;52.524;13.340;2022-11-20T15:09:21;2.10;99.90
50067;DHT22;35952;52.524;13.340;2022-11-20T15:11:57;2.00;99.90
50067;DHT22;35952;52.524;13.340;2022-11-20T15:14:25;1.90;99.90
50067;DHT22;35952;52.524;13.340;2022-11-20T15:16:52;2.00;99.90
50067;DHT22;35952;52.524;13.340;2022-11-20T15:19:25;2.00;99.90
50067;DHT22;35952;52.524;13.340;2022-11-20T15:21:52;2.00;99.90
50067;DHT22;35952;52.524;13.340;2022-11-20T15:24:18;2.10;99.90
50067;DHT22;35952;52.524;13.340;2022-11-20T15:26:44;2.10;99.90
50067;DHT22;35952;52.524;13.340;2022-11-20T15:29:11;2.10;99.90
50067;DHT22;35952;52.524;13.340;2022-11-20T15:31:37;2.10;99.90
50067;DHT22;35952;52.524;13.340;2022-11-20T15:34:10;2.10;99.90
50067;DHT22;35952;52.524;13.340;2022-11-20T15:36:36;2.10;99.90
50067;DHT22;35952;52.524;13.340;2022-11-20T15:39:02;2.10;99.90
50067;DHT22;35952;52.524;13.340;2022-11-20T15:41:29;2.10;99.90
50067;DHT22;35952;52.524;13.340;2022-11-20T15:43:55;2.10;99.90
50067;DHT22;35952;52.524;13.340;2022-11-20T15:46:26;2.00;99.90
50067;DHT22;35952;52.524;13.340;2022-11-20T15:48:57;2.10;99.90
50067;DHT22;35952;52.524;13.340;2022-11-20T15:51:26;2.00;99.90
50067;DHT22;35952;52.524;13.340;2022-11-20T15:53:52;2.00;99.90
50067;DHT22;35952;52.524;13.340;2022-11-20T15:56:17;2.00;99.90
50067;DHT22;35952;52.524;13.340;2022-11-20T15:58:43;2.00;99.90
50067;DHT22;35952;52.524;13.340;2022-11-20T16:01:14;1.80;99.90
50067;DHT22;35952;52.524;13.340;2022-11-20T16:03:40;1.70;99.90
50067;DHT22;35952;52.524;13.340;2022-11-20T16:06:06;1.60;99.90
50067;DHT22;35952;52.524;13.340;2022-11-20T16:08:32;1.50;99.90
50067;DHT22;35952;52.524;13.340;2022-11-20T16:10:57;1.40;99.90
50067;DHT22;35952;52.524;13.340;2022-11-20T16:13:23;1.30;99.90
50067;DHT22;35952;52.524;13.340;2022-11-20T16:16:20;1.40;99.90
50067;DHT22;35952;52.524;13.340;2022-11-20T16:18:46;1.40;99.90
50067;DHT22;35952;52.524;13.340;2022-11-20T16:21:12;1.30;99.90
50067;DHT22;35952;52.524;13.340;2022-11-20T16:23:41;1.20;99.90
50067;DHT22;35952;52.524;13.340;2022-11-20T16:26:14;1.20;99.90
50067;DHT22;35952;52.524;13.340;2022-11-20T16:28:41;1.20;99.90
50067;DHT22;35952;52.524;13.340;2022-11-20T16:31:14;1.00;99.90
50067;DHT22;35952;52.524;13.340;2022-11-20T16:33:40;1.10;99.90
50067;DHT22;35952;52.524;13.340;2022-11-20T16:36:10;1.10;99.90
50067;DHT22;35952;52.524;13.340;2022-11-20T16:38:36;1.00;99.90
50067;DHT22;35952;52.524;13.340;2022-11-20T16:41:02;1.00;99.90
50067;DHT22;35952;52.524;13.340;2022-11-20T16:43:27;1.00;99.90
50067;DHT22;35952;52.524;13.340;2022-11-20T16:45:53;1.10;99.90
50067;DHT22;35952;52.524;13.340;2022-11-20T16:48:18;1.00;99.90
50067;DHT22;35952;52.524;13.340;2022-11-20T16:50:45;1.00;99.90